This is the latest recevied weather packets stored in our database for station/object IK6ZNK-3. If no packets are shown the sender has not sent any weather packets the latest 1 day(s).
| Time | Temp. | Humidity | Pressure | Rain* | Wind** | Luminosity | Snow |
|---|---|---|---|---|---|---|---|
| 1778080207 | 22.22° C | 67% | 1003.8 hPa | 0 mm | - | - | - |
| 1778077207 | 22.22° C | 65% | 1003.7 hPa | 0 mm | - | - | - |
| 1778076607 | 22.22° C | 67% | 1003.6 hPa | 0 mm | - | - | - |
| 1778073009 | 22.22° C | 58% | 1003.8 hPa | 0 mm | - | - | - |
| 1778071209 | 22.22° C | 62% | 1004.4 hPa | 0 mm | - | - | - |
| 1778070609 | 22.22° C | 63% | 1004.1 hPa | 0 mm | - | - | - |
| 1778069407 | 22.78° C | 60% | 1004.3 hPa | 0 mm | - | - | - |
| 1778067609 | 21.11° C | 65% | 1004.1 hPa | 0 mm | - | - | - |
| 1778067011 | 20.56° C | 66% | 1004.2 hPa | 0 mm | - | - | - |
| 1778061609 | 18.33° C | 76% | 1004.9 hPa | 0 mm | - | - | - |
| 1778060412 | 18.89° C | 74% | 1005.2 hPa | 0 mm | - | - | - |
| 1778059810 | 18.89° C | 74% | 1005 hPa | 0 mm | - | - | - |
| 1778058611 | 19.44° C | 72% | 1004.7 hPa | 0 mm | - | - | - |
| 1778056208 | 19.44° C | 71% | 1004.5 hPa | 0 mm | - | - | - |
| 1778055608 | 19.44° C | 70% | 1004.7 hPa | 0 mm | - | - | - |
| 1778055008 | 20° C | 69% | 1004.9 hPa | 0 mm | - | - | - |
| 1778051407 | 18.33° C | 70% | 1005 hPa | 0 mm | - | - | - |
| 1778049606 | 17.78° C | 73% | 1005.2 hPa | 0 mm | - | - | - |
| 1778048407 | 16.67° C | 75% | 1005.1 hPa | 0 mm | - | - | - |
| 1778047207 | 16.67° C | 71% | 1004.9 hPa | 0 mm | - | - | - |
| 1778044807 | 16.11° C | 71% | 1004.7 hPa | 0 mm | - | - | - |
| 1778043607 | 15° C | 75% | 1004.8 hPa | 0 mm | - | - | - |
| 1778041806 | 14.44° C | 77% | 1004.2 hPa | 0 mm | - | - | - |
| 1778041206 | 14.44° C | 77% | 1004.6 hPa | 0 mm | - | - | - |
| 1778040607 | 15.56° C | 75% | 1004.4 hPa | 0 mm | - | - | - |
* Rain latest hour (hover to see other rain measurements)
** Current wind speed in m/s (hover to see current wind gust speed)